Tiempo atmosférico en la estación meteorológica de Valderredible, Cubillo de Ebro, Cantabria (765 m.)



Fecha
DESCASC
Temp. máxima en grados centígrados (hora)
DESCASC
Temp. mínima en grados centígrados (hora)
DESCASC
Temp. media en grados centígrados
DESCASC
Racha de viento máxima en m/sg (hora)
DESCASC
Velocidad máxima media en intervalos de 10 minutos(hora)
DESCASC
Precipitaciones diarias en mm
DESCASC
Precipitaciones de 00:00 a 06:00 en mm
DESCASC
Precipitaciones de 06:00 a 12:00 en mm
DESCASC
Precipitaciones de 12:00 a 18:00 en mm
DESCASC
Precipitaciones de 18:00 a 24:00 en mm
DESCASC
02-04-2020 11.1 (16:50) 5.1 (23:00) 8.1 12.22 (16:40) 6.67 (16:20) 1.6 0.8 0.2 0.6 0
01-04-2020 11.9 (16:50) 5.4 (08:00) 8.6 8.33 (01:00) 5 (01:00) 1.4 0.6 0.6 0 0.2
31-03-2020 6.8 (18:20) -2 (-00:0) 2.4 10.56 (18:40) 6.39 (18:40) 2 0 0 0 2
30-03-2020 4.1 (13:20) 0 (00:00) 2 10.56 (12:20) 5 (17:00) 0.6 0 0 0.6 0
29-03-2020 12.5 (15:40) -3.4 (-00:0) 4.5 11.39 (17:00) 6.11 (17:00) 0 0 0 0 0
28-03-2020 16.7 (15:00) -5 (-00:0) 5.9 8.89 (15:20) 4.44 (16:40) 0 0 0 0 0
27-03-2020 13.4 (16:40) -5.1 (-00:0) 4.1 8.61 (15:20) 5 (15:40) 0 0 0 0 0
26-03-2020 7.4 (17:00) -2.4 (-00:0) 2.5 11.94 (12:20) 5 (13:30) 0.2 0 0 0 0.2
25-03-2020 15.3 (14:40) -1.9 (-00:0) 6.7 10 (16:50) 5.56 (16:30) 0 0 0 0 0
24-03-2020 16.9 (14:50) 3.8 (00:00) 10.3 9.17 (13:30) 5.28 (14:40) 0 0 0 0 0
23-03-2020 15.2 (16:00) 0.8 (00:00) 8 11.11 (14:20) 6.39 (15:10) 0 0 0 0 0
22-03-2020 15.8 (13:10) 0.6 (07:00) 8.2 9.44 (16:30) 5.56 (16:10) 0 0 0 0 0
21-03-2020 15.6 (16:20) 3 (00:00) 9.3 6.67 (14:10) 3.61 (14:10) 0 0 0 0 0
20-03-2020 14.4 (15:30) 0.9 (00:00) 7.6 7.22 (20:10) 5.28 (20:10) 0 0 0 0 0
19-03-2020 19.1 (14:30) 2.9 (00:00) 11 7.5 (18:30) 5.28 (18:40) 0 0 0 0 0
18-03-2020 20.5 (16:30) 4.7 (00:00) 12.6 5 (18:40) 3.61 (18:40) 0 0 0 0 0
17-03-2020 9.5 (16:20) 4.7 (00:00) 7.1 8.89 (00:20) 4.17 (00:20) 0 0 0 0 0
16-03-2020 6 (13:30) 1.7 (00:00) 3.9 14.17 (21:50) 5.56 (05:00) 1.8 0.8 0.6 0.4 0
15-03-2020 18.7 (15:20) -3.2 (-00:0) 7.8 10.83 (14:50) 6.39 (20:20) 0 0 0 0 0
14-03-2020 17.6 (16:30) -2.9 (-00:0) 7.4 5 (15:10) 3.06 (12:10) 0 0 0 0 0
13-03-2020 9.4 (13:50) -0.3 (23:59) 4.5 8.33 (11:20) 5 (11:20) 0 0 0 0 0
12-03-2020 12.9 (12:30) 3.6 (00:00) 8.2 9.17 (22:00) 4.17 (20:00) 0 0 0 0 0
11-03-2020 22.1 (16:30) -0.7 (-00:0) 10.7 9.44 (14:20) 5.28 (14:30) 0 0 0 0 0
10-03-2020 20.8 (16:00) 0.3 (00:00) 10.5 8.33 (16:20) 4.72 (17:00) 0 0 0 0 0
09-03-2020 11.2 (17:10) 2 (00:00) 6.6 6.11 (11:10) 3.33 (11:10) 0 0 0 0 0
08-03-2020 15.1 (16:10) -1.2 (-00:0) 7 10 (16:30) 6.11 (18:30) 0 0 0 0 0
07-03-2020 12.6 (15:30) 0.7 (00:00) 6.7 10.28 (00:10) 5.28 (00:10) 6 4.2 1.8 0 0
06-03-2020 6.7 (14:30) -0.2 (00:00) 3.2 15.56 (15:50) 8.61 (16:50) 4.2 0 4 0 0.2
05-03-2020 13.8 (14:00) 0.1 (00:00) 7 19.44 (04:10) 11.39 (11:40) 1 0 0.6 0.4 0

Gráficas

Temp. máximas Temp. mínimas Temp. medias Precipitaciones Rachas de viento máximas Velocidades máximas media en intervalos de 10 minutos

Datos horarios

Fecha y hora oficial Temperatura (ºC) Velocidad del viento (km/h) Dirección del viento Racha (km/h) Dirección de racha Precipitación (mm) Presión (hPa) Tendencia (hPa) Humedad (%)
2020-04-03 23:00:00 4.2 5 Noroeste 10 Noroeste 0 -- -- 75
2020-04-03 22:00:00 7.4 3 Oeste 8 Noroeste 0 -- -- 63
2020-04-03 21:00:00 11 3 Oeste 9 Oeste 0 -- -- 50
2020-04-03 20:00:00 15.7 4 Este 8 Este 0 -- -- 33
2020-04-03 19:00:00 16.2 4 Nordeste 9 Este 0 -- -- 31
2020-04-03 18:00:00 16.2 3 Nordeste 14 Sudeste 0 -- -- 29
2020-04-03 17:00:00 15.9 5 Este 19 Este 0 -- -- 35
2020-04-03 16:00:00 14.4 6 Oeste 17 Sudeste 0 -- -- 45
2020-04-03 15:00:00 13.6 5 Sudoeste 14 Sudeste 0 -- -- 47
2020-04-03 14:00:00 11.5 4 Norte 18 Sudeste 0 -- -- 51
2020-04-03 13:00:00 10 8 Sudoeste 15 Sudoeste 0 -- -- 62
2020-04-03 12:00:00 8.2 4 Sudoeste 11 Sudeste 0 -- -- 66
2020-04-03 11:00:00 5.5 2 Sudeste 8 Este 0 -- -- 76
2020-04-03 10:00:00 3.9 0 Calma 5 Este 0 -- -- 91
2020-04-03 09:00:00 -0.5 0 Calma 6 Oeste 0 -- -- 96
2020-04-03 08:00:00 -1 3 Oeste 4 Oeste 0 -- -- 94
2020-04-03 07:00:00 0.3 2 Sudeste 5 Noroeste 0 -- -- 93
2020-04-03 06:00:00 1.3 3 Este 5 Este 0 -- -- 91
2020-04-03 05:00:00 2.5 3 Este 11 Este 0 -- -- 86
2020-04-03 04:00:00 3.5 7 Este 11 Este 0 -- -- 87
2020-04-03 03:00:00 4 2 Este 6 Nordeste 0 -- -- 85
2020-04-03 02:00:00 3.9 0 Calma 8 Nordeste 0 -- -- 85
2020-04-03 01:00:00 4.5 3 Este 12 Noroeste 0 -- -- 80
2020-04-03 00:00:00 5.1 6 Norte 24 Nordeste 0 -- -- 80
2020-04-02 23:00:00 5.1 6 Norte 23 Noroeste 0 -- -- 81
2020-04-02 22:00:00 5.6 7 Nordeste 23 Este 0 -- -- 81
2020-04-02 21:00:00 6.2 8 Norte 24 Noroeste 0 -- -- 80
2020-04-02 20:00:00 7.2 5 Norte 16 Nordeste 0 -- -- 78
2020-04-02 19:00:00 8.1 6 Norte 24 Norte 0 -- -- 75
2020-04-02 18:00:00 9.9 15 Norte 36 Noroeste 0 -- -- 68
2020-04-02 17:00:00 11.1 17 Noroeste 44 Noroeste 0 -- -- 67
2020-04-02 16:00:00 9.9 19 Noroeste 39 Norte 0 -- -- 74
2020-04-02 15:00:00 9.7 21 Noroeste 36 Noroeste 0 -- -- 80
2020-04-02 14:00:00 9.4 12 Noroeste 28 Noroeste 0 -- -- 84
2020-04-02 13:00:00 8 8 Norte 22 Noroeste 0.6 -- -- 87
2020-04-02 12:00:00 8.1 5 Nordeste 20 Nordeste 0.2 -- -- 87
2020-04-02 11:00:00 8.9 9 Noroeste 17 Noroeste 0 -- -- 84
2020-04-02 10:00:00 7.9 9 Noroeste 16 Noroeste 0 -- -- 87
2020-04-02 09:00:00 7.5 3 Norte 18 Norte 0 -- -- 91
2020-04-02 08:00:00 6.9 3 Norte 14 Norte 0 -- -- 94
2020-04-02 07:00:00 7 5 Nordeste 19 Noroeste 0 -- -- 94
2020-04-02 06:00:00 6.5 3 Nordeste 5 Nordeste 0 -- -- 96
2020-04-02 05:00:00 6.7 3 Nordeste 4 Nordeste 0 -- -- 96
2020-04-02 04:00:00 6.8 2 Este 5 Este 0 -- -- 95
2020-04-02 03:00:00 6.8 2 Noroeste 4 Este 0.2 -- -- 95
2020-04-02 02:00:00 7.1 3 Nordeste 6 Nordeste 0.4 -- -- 94
2020-04-02 01:00:00 7.3 2 Este 8 Nordeste 0.2 -- -- 92
2020-04-02 00:00:00 7.7 5 Nordeste 9 Este 0.2 -- -- 89
2020-04-01 23:00:00 8.2 5 Este 10 Nordeste 0 -- -- 85
2020-04-01 22:00:00 8.6 6 Nordeste 13 Norte 0 -- -- 81
2020-04-01 21:00:00 9 6 Norte 15 Nordeste 0 -- -- 77
2020-04-01 20:00:00 9.8 9 Nordeste 21 Nordeste 0 -- -- 75
2020-04-01 19:00:00 11 13 Este 22 Este 0 -- -- 70
2020-04-01 18:00:00 11.3 14 Este 26 Este 0 -- -- 69
2020-04-01 17:00:00 11.9 12 Este 19 Este 0 -- -- 67
2020-04-01 16:00:00 11 4 Nordeste 9 Sudoeste 0 -- -- 71
2020-04-01 15:00:00 10.2 3 Oeste 6 Sudoeste 0 -- -- 73
2020-04-01 14:00:00 10.1 3 Noroeste 9 Nordeste 0 -- -- 75
2020-04-01 13:00:00 9.4 3 Este 10 Sudeste 0 -- -- 78
2020-04-01 12:00:00 8.2 4 Este 10 Este 0 -- -- 84
2020-04-01 11:00:00 7.2 5 Este 12 Este 0 -- -- 89
2020-04-01 10:00:00 6.2 5 Este 10 Sudeste 0.2 -- -- 93
2020-04-01 09:00:00 5.6 3 Este 9 Este 0 -- -- 93
2020-04-01 08:00:00 5.4 6 Sudeste 16 Este 0 -- -- 93
2020-04-01 07:00:00 5.6 8 Este 17 Este 0.4 -- -- 93
2020-04-01 06:00:00 5.7 2 Sudoeste 20 Este 0.2 -- -- 92
2020-04-01 05:00:00 5.7 5 Este 10 Este 0.2 -- -- 93
2020-04-01 04:00:00 5.9 7 Este 14 Sudeste 0.2 -- -- 91
2020-04-01 03:00:00 6.2 10 Este 19 Este 0 -- -- 87
2020-04-01 02:00:00 6.4 15 Este 29 Este 0 -- -- 85
2020-04-01 01:00:00 6.3 18 Este 30 Este 0 -- -- 85
2020-04-01 00:00:00 5.9 4 Sudeste 24 Este 0 -- -- 86
2020-03-31 23:00:00 5.8 12 Este 25 Este 0.2 -- -- 87
2020-03-31 22:00:00 5.6 11 Este 25 Este 1.4 -- -- 88
2020-03-31 21:00:00 5.9 10 Este 37 Este 0.4 -- -- 82
2020-03-31 20:00:00 6.5 18 Este 35 Este 0 -- -- 76
2020-03-31 19:00:00 6.7 21 Este 38 Este 0 -- -- 74
2020-03-31 18:00:00 6.7 20 Este 36 Este 0 -- -- 76
2020-03-31 17:00:00 6.2 17 Este 31 Este 0 -- -- 81
2020-03-31 16:00:00 5.8 15 Este 31 Este 0 -- -- 78
2020-03-31 15:00:00 5.4 20 Este 34 Este 0 -- -- 75
2020-03-31 14:00:00 5.1 16 Este 28 Nordeste 0 -- -- 71
2020-03-31 13:00:00 3.9 20 Nordeste 31 Este 0 -- -- 72
2020-03-31 12:00:00 2.6 14 Este 26 Este 0 -- -- 74
2020-03-31 11:00:00 1.6 13 Nordeste 27 Este 0 -- -- 76
2020-03-31 10:00:00 1 12 Nordeste 23 Este 0 -- -- 76
2020-03-31 09:00:00 0.3 7 Nordeste 18 Nordeste 0 -- -- 80
2020-03-31 08:00:00 -0.7 8 Nordeste 16 Norte 0 -- -- 81
2020-03-31 07:00:00 -0.7 6 Nordeste 12 Nordeste 0 -- -- 84
2020-03-31 06:00:00 -1.7 4 Nordeste 6 Nordeste 0 -- -- 90
2020-03-31 05:00:00 -1.7 3 Norte 6 Nordeste 0 -- -- 87
2020-03-31 04:00:00 -1.7 4 Nordeste 10 Este 0 -- -- 87
2020-03-31 03:00:00 -1.2 7 Este 11 Norte 0 -- -- 85
2020-03-31 02:00:00 -0.3 6 Noroeste 16 Norte 0 -- -- 83
2020-03-31 01:00:00 0.2 4 Norte 15 Nordeste 0 -- -- 80
2020-03-31 00:00:00 0.3 7 Norte 18 Este 0 -- -- 80
2020-03-30 23:00:00 0.3 5 Nordeste 15 Nordeste 0 -- -- 81
2020-03-30 22:00:00 0.1 6 Nordeste 15 Norte 0 -- -- 82
2020-03-30 21:00:00 0.3 8 Este 24 Norte 0 -- -- 78
2020-03-30 20:00:00 0.8 9 Norte 24 Norte 0 -- -- 77
2020-03-30 19:00:00 1.5 11 Norte 27 Noroeste 0 -- -- 78
2020-03-30 18:00:00 2.8 10 Nordeste 30 Noroeste 0 -- -- 73
2020-03-30 17:00:00 4 18 Noroeste 35 Norte 0 -- -- 66
2020-03-30 16:00:00 2.7 14 Norte 36 Norte 0 -- -- 76
2020-03-30 15:00:00 2.2 15 Noroeste 30 Noroeste 0.6 -- -- 80
2020-03-30 14:00:00 2.1 13 Noroeste 31 Nordeste 0 -- -- 75
2020-03-30 13:00:00 3.3 16 Norte 38 Nordeste 0 -- -- 65
2020-03-30 12:00:00 1.8 12 Norte 27 Nordeste 0 -- -- 76
2020-03-30 11:00:00 2.7 12 Norte 31 Noroeste 0 -- -- 63
2020-03-30 10:00:00 0.4 15 Nordeste 28 Norte 0 -- -- 78
2020-03-30 09:00:00 0.6 11 Nordeste 22 Nordeste 0 -- -- 77
2020-03-30 08:00:00 0.2 11 Nordeste 27 Norte 0 -- -- 81
2020-03-30 07:00:00 0.5 9 Nordeste 24 Norte 0 -- -- 80
2020-03-30 06:00:00 0.6 9 Nordeste 22 Norte 0 -- -- 80
2020-03-30 05:00:00 1.1 7 Nordeste 27 Norte 0 -- -- 78
2020-03-30 04:00:00 1.6 12 Norte 28 Norte 0 -- -- 81
2020-03-30 03:00:00 2 13 Norte 28 Norte 0 -- -- 85
2020-03-30 02:00:00 2.6 4 Nordeste 21 Nordeste 0 -- -- 83
2020-03-30 01:00:00 2.8 10 Norte 31 Nordeste 0 -- -- 85
2020-03-30 00:00:00 3.2 6 Nordeste 20 Nordeste 0 -- -- 87
2020-03-29 23:00:00 3.8 7 Sudeste 25 Nordeste 0 -- -- 87
2020-03-29 22:00:00 4.6 9 Nordeste 22 Nordeste 0 -- -- 87
2020-03-29 21:00:00 5.3 7 Nordeste 27 Este 0 -- -- 86
2020-03-29 20:00:00 6.1 8 Nordeste 23 Norte 0 -- -- 84
2020-03-29 19:00:00 7.1 10 Norte 30 Norte 0 -- -- 82
2020-03-29 18:00:00 9.3 15 Nordeste 35 Nordeste 0 -- -- 64
2020-03-29 17:00:00 11.4 22 Nordeste 41 Nordeste 0 -- -- 54
2020-03-29 16:00:00 11.9 17 Norte 34 Noroeste 0 -- -- 48
2020-03-29 15:00:00 12.1 15 Norte 32 Nordeste 0 -- -- 51
2020-03-29 14:00:00 11.8 14 Norte 30 Norte 0 -- -- 52
2020-03-29 13:00:00 11.4 13 Noroeste 25 Noroeste 0 -- -- 55
2020-03-29 12:00:00 7.3 9 Este 14 Este 0 -- -- 76
2020-03-29 11:00:00 1.9 6 Este 10 Este 0 -- -- 99
2020-03-29 10:00:00 -0.6 3 Este 4 Este 0 -- -- 98
2020-03-29 09:00:00 -1.7 3 Oeste 5 Oeste 0 -- -- 97
2020-03-29 08:00:00 -2.7 0 Calma 5 Sudoeste 0 -- -- 96
2020-03-29 07:00:00 -3.3 3 Sudoeste 5 Sudoeste 0 -- -- 95
2020-03-29 06:00:00 -2.8 4 Sudoeste 5 Sudoeste 0 -- -- 95
2020-03-29 05:00:00 -2.1 3 Oeste 4 Noroeste 0 -- -- 95
2020-03-29 03:00:00 -0.7 3 Oeste 7 Oeste 0 -- -- 93
2020-03-29 01:00:00 0.2 3 Oeste 7 Oeste 0 -- -- 92
2020-03-29 00:00:00 1.5 3 Oeste 4 Oeste 0 -- -- 89
2020-03-28 23:00:00 3.3 0 Calma 4 Nordeste 0 -- -- 86
2020-03-28 22:00:00 5.4 3 Sudeste 7 Nordeste 0 -- -- 80
2020-03-28 21:00:00 7 2 Este 9 Norte 0 -- -- 76
2020-03-28 20:00:00 8.8 3 Sur 22 Noroeste 0 -- -- 68
2020-03-28 19:00:00 11.7 12 Norte 24 Noroeste 0 -- -- 58
2020-03-28 18:00:00 14.1 14 Norte 27 Noroeste 0 -- -- 42
2020-03-28 17:00:00 15.3 10 Norte 29 Noroeste 0 -- -- 39
2020-03-28 16:00:00 15.6 13 Norte 32 Sudeste 0 -- -- 35
2020-03-28 15:00:00 16.7 5 Oeste 22 Este 0 -- -- 36
2020-03-28 14:00:00 16.4 7 Sudeste 27 Este 0 -- -- 32
2020-03-28 13:00:00 15.2 5 Sudoeste 14 Oeste 0 -- -- 28
2020-03-28 12:00:00 13.4 5 Sur 14 Sur 0 -- -- 35
2020-03-28 11:00:00 9.9 2 Sur 10 Sudeste 0 -- -- 56
2020-03-28 10:00:00 5.1 3 Este 6 Sudeste 0 -- -- 76
2020-03-28 09:00:00 -1 3 Oeste 6 Oeste 0 -- -- 93
2020-03-28 08:00:00 -4.6 3 Oeste 4 Sudoeste 0 -- -- 95
2020-03-28 07:00:00 -4.8 0 Calma 4 Oeste 0 -- -- 94
2020-03-28 06:00:00 -4.5 2 Oeste 6 Oeste 0 -- -- 94
2020-03-28 05:00:00 -4 0 Calma 7 Sudoeste 0 -- -- 94
2020-03-28 04:00:00 -3.3 3 Oeste 8 Oeste 0 -- -- 94
2020-03-28 03:00:00 -2.8 3 Oeste 8 Noroeste 0 -- -- 93
2020-03-28 02:00:00 -2 5 Noroeste 8 Noroeste 0 -- -- 92
2020-03-28 01:00:00 -1.4 3 Oeste 5 Oeste 0 -- -- 91
2020-03-28 00:00:00 -0.4 2 Noroeste 8 Noroeste 0 -- -- 89
2020-03-27 23:00:00 0.8 0 Calma 6 Oeste 0 -- -- 86
2020-03-27 22:00:00 2.7 2 Oeste 5 Oeste 0 -- -- 79
2020-03-27 21:00:00 5.4 5 Norte 14 Norte 0 -- -- 72
2020-03-27 20:00:00 6.9 9 Norte 24 Norte 0 -- -- 67
2020-03-27 19:00:00 9.7 10 Norte 22 Nordeste 0 -- -- 54
2020-03-27 18:00:00 12.4 13 Este 24 Este 0 -- -- 35
2020-03-27 17:00:00 12.8 10 Este 29 Este 0 -- -- 29
2020-03-27 16:00:00 12.8 13 Este 31 Este 0 -- -- 28
2020-03-27 15:00:00 13.1 13 Sudeste 29 Este 0 -- -- 33
2020-03-27 14:00:00 12 16 Este 28 Nordeste 0 -- -- 36
2020-03-27 13:00:00 10.5 9 Sudeste 26 Nordeste 0 -- -- 44
2020-03-27 12:00:00 8.9 10 Sudeste 26 Nordeste 0 -- -- 49
2020-03-27 11:00:00 7.4 12 Este 21 Este 0 -- -- 57
2020-03-27 10:00:00 3.7 5 Sudeste 10 Este 0 -- -- 74
2020-03-27 09:00:00 -0.6 4 Este 7 Este 0 -- -- 92
2020-03-27 08:00:00 -4.4 2 Sudoeste 4 Sudoeste 0 -- -- 95
2020-03-27 07:00:00 -4.7 0 Calma 6 Noroeste 0 -- -- 94
2020-03-27 06:00:00 -3.9 2 Oeste 5 Oeste 0 -- -- 93
2020-03-27 05:00:00 -3 3 Oeste 10 Nordeste 0 -- -- 92
2020-03-27 04:00:00 -1.9 2 Noroeste 11 Este 0 -- -- 90
2020-03-27 03:00:00 -1 3 Oeste 9 Noroeste 0 -- -- 90
2020-03-27 02:00:00 -1.2 0 Calma 11 Norte 0 -- -- 90
2020-03-27 01:00:00 0.3 6 Norte 12 Norte 0 -- -- 82
2020-03-27 00:00:00 0.8 6 Nordeste 11 Norte 0 -- -- 81
2020-03-26 23:00:00 1.4 5 Nordeste 15 Norte 0 -- -- 79
2020-03-26 22:00:00 2.5 7 Nordeste 19 Nordeste 0 -- -- 77
2020-03-26 21:00:00 2.9 8 Norte 17 Norte 0 -- -- 79
2020-03-26 20:00:00 3.5 8 Norte 18 Nordeste 0 -- -- 81
2020-03-26 19:00:00 4.2 9 Norte 27 Noroeste 0.2 -- -- 82
2020-03-26 18:00:00 7 15 Noroeste 31 Norte 0 -- -- 65
2020-03-26 17:00:00 7.4 8 Nordeste 35 Norte 0 -- -- 60
2020-03-26 16:00:00 6.6 8 Norte 27 Oeste 0 -- -- 61
2020-03-26 15:00:00 6.4 11 Noroeste 31 Noroeste 0 -- -- 65
2020-03-26 14:00:00 6.8 14 Norte 37 Noroeste 0 -- -- 60
2020-03-26 13:00:00 7.2 11 Norte 43 Noroeste 0 -- -- 59
2020-03-26 12:00:00 7.1 14 Norte 31 Oeste 0 -- -- 62
2020-03-26 11:00:00 5.7 15 Norte 32 Norte 0 -- -- 69
2020-03-26 10:00:00 3.9 4 Sudoeste 14 Sudoeste 0 -- -- 80
2020-03-26 09:00:00 0.3 3 Oeste 10 Noroeste 0 -- -- 91
2020-03-26 08:00:00 -2.2 6 Noroeste 8 Noroeste 0 -- -- 92
2020-03-26 07:00:00 -0.9 2 Noroeste 10 Norte 0 -- -- 86
2020-03-26 06:00:00 1.5 5 Norte 13 Norte 0 -- -- 78
2020-03-26 05:00:00 1.1 5 Nordeste 14 Nordeste 0 -- -- 83
2020-03-26 04:00:00 1.6 9 Este 18 Este 0 -- -- 83
2020-03-26 03:00:00 1.6 8 Nordeste 19 Nordeste 0 -- -- 84
2020-03-26 02:00:00 2 10 Este 15 Este 0 -- -- 86
2020-03-26 01:00:00 2.6 5 Este 12 Este 0 -- -- 83
2020-03-26 00:00:00 4 5 Este 19 Norte 0 -- -- 77
2020-03-25 23:00:00 4.8 9 Norte 22 Norte 0 -- -- 81
2020-03-25 22:00:00 5.7 9 Nordeste 18 Norte 0 -- -- 81
2020-03-25 21:00:00 6.4 10 Norte 19 Este 0 -- -- 79
2020-03-25 20:00:00 7.7 7 Nordeste 24 Norte 0 -- -- 73
2020-03-25 19:00:00 10.5 10 Norte 29 Norte 0 -- -- 58
2020-03-25 18:00:00 13 9 Norte 30 Norte 0 -- -- 51
2020-03-25 17:00:00 13.7 15 Norte 36 Norte 0 -- -- 47
2020-03-25 16:00:00 14.4 15 Norte 28 Norte 0 -- -- 43
2020-03-25 15:00:00 14.9 13 Noroeste 28 Noroeste 0 -- -- 43
2020-03-25 14:00:00 15 11 Norte 29 Norte 0 -- -- 44
2020-03-25 13:00:00 14.7 11 Noroeste 28 Noroeste 0 -- -- 45
2020-03-25 12:00:00 13.9 11 Norte 25 Nordeste 0 -- -- 43
2020-03-25 11:00:00 10.3 9 Este 14 Este 0 -- -- 70
2020-03-25 10:00:00 5.5 3 Sudeste 6 Este 0 -- -- 92
2020-03-25 09:00:00 0.1 3 Este 6 Este 0 -- -- 98
2020-03-25 08:00:00 -1.8 2 Oeste 5 Oeste 0 -- -- 97
2020-03-25 07:00:00 -1.8 4 Oeste 9 Oeste 0 -- -- 96
2020-03-25 06:00:00 -1.2 0 Calma 10 Oeste 0 -- -- 96
2020-03-25 05:00:00 -0.8 5 Noroeste 9 Oeste 0 -- -- 95
2020-03-25 04:00:00 0.3 3 Nordeste 12 Oeste 0 -- -- 94
2020-03-25 03:00:00 1.1 9 Noroeste 12 Oeste 0 -- -- 94
2020-03-25 02:00:00 2.1 4 Oeste 6 Noroeste 0 -- -- 92
2020-03-25 01:00:00 3.1 3 Oeste 9 Oeste 0 -- -- 91
2020-03-25 00:00:00 3.8 6 Oeste 8 Noroeste 0 -- -- 90
2020-03-24 23:00:00 4.6 4 Oeste 7 Oeste 0 -- -- 87
2020-03-24 22:00:00 6.6 0 Calma 6 Oeste 0 -- -- 81
2020-03-24 21:00:00 9.7 3 Noroeste 19 Nordeste 0 -- -- 72
2020-03-24 20:00:00 11.5 12 Nordeste 18 Nordeste 0 -- -- 64
2020-03-24 19:00:00 13.6 9 Nordeste 29 Este 0 -- -- 54
2020-03-24 18:00:00 15.3 14 Este 31 Este 0 -- -- 47
2020-03-24 17:00:00 15.7 14 Este 30 Este 0 -- -- 47
2020-03-24 16:00:00 15.3 14 Nordeste 30 Este 0 -- -- 48
2020-03-24 15:00:00 16.8 13 Nordeste 32 Este 0 -- -- 47
2020-03-24 14:00:00 16.2 14 Este 33 Este 0 -- -- 48
2020-03-24 13:00:00 15.7 17 Este 29 Este 0 -- -- 48
2020-03-24 12:00:00 15 13 Sudeste 28 Este 0 -- -- 49
2020-03-24 11:00:00 13.9 12 Sudeste 22 Sudeste 0 -- -- 58
2020-03-24 10:00:00 11.7 5 Sudeste 12 Norte 0 -- -- 69
2020-03-24 09:00:00 8 2 Este 6 Oeste 0 -- -- 89
2020-03-24 08:00:00 6.3 4 Oeste 6 Oeste 0 -- -- 94
2020-03-24 07:00:00 5.8 0 Calma 6 Noroeste 0 -- -- 93
2020-03-24 06:00:00 6.2 3 Oeste 6 Noroeste 0 -- -- 91
2020-03-24 05:00:00 7 0 Calma 8 Nordeste 0 -- -- 88
2020-03-24 04:00:00 8.1 2 Este 5 Norte 0 -- -- 85
2020-03-24 03:00:00 8.3 2 Este 9 Noroeste 0 -- -- 85
2020-03-24 02:00:00 7.9 2 Sudeste 9 Este 0 -- -- 86
2020-03-24 01:00:00 7.2 5 Este 9 Sudeste 0 -- -- 90
2020-03-24 00:00:00 7.5 2 Este 5 Este 0 -- -- 88
2020-03-23 23:00:00 9.1 4 Este 17 Este 0 -- -- 83
2020-03-23 22:00:00 10.1 4 Este 17 Nordeste 0 -- -- 79
2020-03-23 21:00:00 10.6 12 Nordeste 25 Este 0 -- -- 77
2020-03-23 20:00:00 11.6 11 Nordeste 20 Norte 0 -- -- 68
2020-03-23 19:00:00 12.9 9 Nordeste 25 Este 0 -- -- 59
2020-03-23 18:00:00 14 13 Este 29 Este 0 -- -- 53
2020-03-23 17:00:00 13.9 16 Nordeste 31 Este 0 -- -- 54
2020-03-23 16:00:00 15.2 15 Este 34 Sudeste 0 -- -- 48
2020-03-23 15:00:00 14.9 21 Este 40 Este 0 -- -- 46
2020-03-23 14:00:00 14.8 14 Este 30 Este 0 -- -- 50
2020-03-23 13:00:00 13.9 13 Este 28 Este 0 -- -- 57
2020-03-23 12:00:00 12.5 12 Nordeste 21 Este 0 -- -- 64
2020-03-23 11:00:00 9.6 2 Sur 8 Sur 0 -- -- 84
2020-03-23 10:00:00 6.3 3 Este 6 Este 0 -- -- 97
2020-03-23 09:00:00 4.2 2 Oeste 4 Oeste 0 -- -- 98
2020-03-23 08:00:00 2.5 2 Sudeste 9 Noroeste 0 -- -- 97
2020-03-23 07:00:00 1.5 0 Calma 4 Oeste 0 -- -- 97
2020-03-23 06:00:00 0.9 0 Calma 9 Noroeste 0 -- -- 96
2020-03-23 05:00:00 1.7 6 Oeste 13 Noroeste 0 -- -- 94
2020-03-23 04:00:00 3.1 0 Calma 6 Noroeste 0 -- -- 93
2020-03-23 03:00:00 4.4 2 Sudeste 12 Norte 0 -- -- 90
2020-03-23 02:00:00 6 6 Norte 14 Norte 0 -- -- 88
2020-03-23 01:00:00 7.4 6 Norte 11 Norte 0 -- -- 86
2020-03-23 00:00:00 7.1 7 Norte 12 Norte 0 -- -- 88
2020-03-22 23:00:00 6.8 5 Norte 15 Norte 0 -- -- 84
2020-03-22 22:00:00 7.1 6 Norte 17 Norte 0 -- -- 84
2020-03-22 21:00:00 7.8 4 Nordeste 15 Norte 0 -- -- 83
2020-03-22 20:00:00 9 9 Norte 30 Noroeste 0 -- -- 79
2020-03-22 19:00:00 11.1 13 Norte 28 Nordeste 0 -- -- 70
2020-03-22 18:00:00 12.8 13 Norte 32 Norte 0 -- -- 62
2020-03-22 17:00:00 14.1 17 Noroeste 34 Noroeste 0 -- -- 59
2020-03-22 16:00:00 14.3 19 Norte 31 Noroeste 0 -- -- 62
2020-03-22 15:00:00 14.4 12 Norte 30 Noroeste 0 -- -- 64
2020-03-22 14:00:00 15.1 10 Nordeste 29 Sudeste 0 -- -- 49
2020-03-22 13:00:00 15 11 Este 23 Este 0 -- -- 57
2020-03-22 12:00:00 14.2 8 Sudeste 15 Este 0 -- -- 66
2020-03-22 11:00:00 11.3 6 Este 18 Este 0 -- -- 74
2020-03-22 10:00:00 8.5 6 Este 10 Este 0 -- -- 82
2020-03-22 09:00:00 3.8 3 Oeste 5 Oeste 0 -- -- 98
2020-03-22 08:00:00 1 0 Calma 4 Sudoeste 0 -- -- 97
2020-03-22 07:00:00 0.6 3 Oeste 6 Oeste 0 -- -- 96
2020-03-22 06:00:00 1.1 3 Oeste 7 Noroeste 0 -- -- 96
2020-03-22 05:00:00 2 4 Noroeste 7 Oeste 0 -- -- 95
2020-03-22 04:00:00 3.1 2 Nordeste 9 Oeste 0 -- -- 94
2020-03-22 03:00:00 3.9 5 Noroeste 9 Oeste 0 -- -- 93
2020-03-22 02:00:00 4.8 4 Oeste 6 Oeste 0 -- -- 92
2020-03-22 01:00:00 4.6 5 Oeste 10 Oeste 0 -- -- 93
2020-03-22 00:00:00 5.3 5 Noroeste 7 Noroeste 0 -- -- 88
2020-03-21 23:00:00 7.3 0 Calma 5 Nordeste 0 -- -- 84
2020-03-21 22:00:00 9.2 0 Calma 8 Nordeste 0 -- -- 79
2020-03-21 21:00:00 11.1 4 Este 13 Este 0 -- -- 74
2020-03-21 20:00:00 12 11 Este 15 Este 0 -- -- 68
2020-03-21 19:00:00 14.1 6 Sudeste 14 Este 0 -- -- 59
2020-03-21 18:00:00 14.9 4 Sudeste 13 Este 0 -- -- 55
2020-03-21 17:00:00 15.4 4 Sudeste 15 Este 0 -- -- 53
2020-03-21 16:00:00 14.8 8 Este 21 Este 0 -- -- 58
2020-03-21 15:00:00 14.9 10 Este 24 Sudeste 0 -- -- 60
2020-03-21 14:00:00 13.4 9 Este 21 Este 0 -- -- 64
2020-03-21 13:00:00 11.2 11 Este 19 Este 0 -- -- 72
2020-03-21 12:00:00 8.6 13 Este 21 Este 0 -- -- 81
2020-03-21 11:00:00 8.1 11 Este 16 Este 0 -- -- 82
2020-03-21 10:00:00 7.2 13 Sudeste 17 Este 0 -- -- 88
2020-03-21 09:00:00 6.2 2 Este 7 Noroeste 0 -- -- 96
2020-03-21 08:00:00 5.1 0 Calma 4 Sudoeste 0 -- -- 96
2020-03-21 07:00:00 4.7 4 Noroeste 6 Oeste 0 -- -- 96
2020-03-21 06:00:00 5.3 2 Norte 6 Sudoeste 0 -- -- 96
2020-03-21 05:00:00 4.6 4 Oeste 9 Noroeste 0 -- -- 96
2020-03-21 04:00:00 4 5 Oeste 10 Oeste 0 -- -- 97
2020-03-21 03:00:00 3.2 5 Oeste 8 Oeste 0 -- -- 96
2020-03-21 02:00:00 3.4 5 Noroeste 9 Noroeste 0 -- -- 95
2020-03-21 01:00:00 4.3 2 Oeste 5 Este 0 -- -- 92
2020-03-21 00:00:00 5.8 0 Calma 4 Sudeste 0 -- -- 90
2020-03-20 23:00:00 6.9 2 Oeste 10 Sudeste 0 -- -- 88
2020-03-20 22:00:00 8.1 0 Calma 6 Sudeste 0 -- -- 86
2020-03-20 21:00:00 9.8 8 Sudeste 26 Este 0 -- -- 80
2020-03-20 20:00:00 10.9 15 Este 24 Este 0 -- -- 75
2020-03-20 19:00:00 12.4 10 Este 20 Este 0 -- -- 71
2020-03-20 18:00:00 13.8 12 Este 18 Este 0 -- -- 65
2020-03-20 17:00:00 14 12 Sudeste 24 Este 0 -- -- 64
2020-03-20 16:00:00 14.2 8 Sudeste 17 Sudeste 0 -- -- 61
2020-03-20 15:00:00 14 8 Este 18 Sur 0 -- -- 60
2020-03-20 14:00:00 13.6 9 Sudeste 19 Sudeste 0 -- -- 60
2020-03-20 13:00:00 12.6 6 Este 13 Este 0 -- -- 63
2020-03-20 12:00:00 11.1 8 Este 13 Este 0 -- -- 65
2020-03-20 11:00:00 9.5 2 Este 17 Este 0 -- -- 73
2020-03-20 10:00:00 7.8 5 Sudeste 9 Este 0 -- -- 81
2020-03-20 09:00:00 4.9 4 Este 7 Este 0 -- -- 99
2020-03-20 08:00:00 1.6 0 Calma 6 Oeste 0 -- -- 98
2020-03-20 07:00:00 0.9 4 Oeste 8 Oeste 0 -- -- 97
2020-03-20 06:00:00 0.9 3 Sudoeste 8 Oeste 0 -- -- 97
2020-03-20 05:00:00 1.3 5 Oeste 9 Oeste 0 -- -- 96
2020-03-20 04:00:00 1.8 8 Oeste 9 Oeste 0 -- -- 95
2020-03-20 03:00:00 2.6 4 Oeste 8 Oeste 0 -- -- 95
2020-03-20 02:00:00 3.5 5 Oeste 7 Oeste 0 -- -- 94
2020-03-20 01:00:00 4.5 3 Oeste 6 Oeste 0 -- -- 90
2020-03-20 00:00:00 6.4 2 Norte 6 Este 0 -- -- 86
2020-03-19 23:00:00 8.4 4 Este 7 Este 0 -- -- 83
2020-03-19 22:00:00 10 6 Este 12 Este 0 -- -- 79
2020-03-19 21:00:00 11 4 Este 15 Este 0 -- -- 78
2020-03-19 20:00:00 12.1 8 Este 22 Este 0 -- -- 74
2020-03-19 19:00:00 13.5 15 Este 27 Este 0 -- -- 70
2020-03-19 18:00:00 15.5 18 Este 25 Este 0 -- -- 57
2020-03-19 17:00:00 18.1 6 Sudeste 20 Este 0 -- -- 41
2020-03-19 16:00:00 18.6 14 Este 23 Este 0 -- -- 40
2020-03-19 15:00:00 18.5 13 Este 27 Este 0 -- -- 40
2020-03-19 14:00:00 18.7 11 Sudeste 24 Sudeste 0 -- -- 39
2020-03-19 13:00:00 17.5 5 Nordeste 12 Este 0 -- -- 49
2020-03-19 12:00:00 15 3 Sur 11 Este 0 -- -- 60
2020-03-19 11:00:00 10.6 4 Sudeste 9 Sudoeste 0 -- -- 95
2020-03-19 10:00:00 6.6 3 Sudoeste 6 Sudoeste 0 -- -- 98
2020-03-19 09:00:00 4.9 4 Sudoeste 6 Oeste 0 -- -- 98
2020-03-19 08:00:00 3.5 3 Oeste 4 Oeste 0 -- -- 97
2020-03-19 07:00:00 2.9 2 Oeste 4 Sudoeste 0 -- -- 96
2020-03-19 06:00:00 2.9 2 Oeste 5 Oeste 0 -- -- 96
2020-03-19 05:00:00 3.2 3 Sudoeste -- -- 0 -- -- 95
2020-03-19 04:00:00 3.9 2 Oeste 4 Sudoeste 0 -- -- 94
2020-03-19 03:00:00 4.5 2 Oeste 3 Sudoeste 0 -- -- 94
2020-03-19 02:00:00 5.3 2 Noroeste 7 Oeste 0 -- -- 93
2020-03-19 01:00:00 5.9 4 Oeste 7 Oeste 0 -- -- 90
2020-03-19 00:00:00 7.4 0 Calma 4 Sudoeste 0 -- -- 87
2020-03-18 23:00:00 9.1 0 Calma 5 Este 0 -- -- 82
2020-03-18 22:00:00 10.4 4 Nordeste 10 Este 0 -- -- 76
2020-03-18 21:00:00 12.3 4 Este 12 Este 0 -- -- 73
2020-03-18 20:00:00 14.4 9 Este 14 Este 0 -- -- 69
2020-03-18 19:00:00 17.1 9 Este 18 Este 0 -- -- 59
2020-03-18 18:00:00 19.6 3 Sudeste 17 Este 0 -- -- 46
2020-03-18 17:00:00 19.8 5 Este 17 Nordeste 0 -- -- 47
2020-03-18 16:00:00 19.7 4 Este 11 Este 0 -- -- 50
2020-03-18 15:00:00 18 4 Este 14 Este 0 -- -- 54
2020-03-18 14:00:00 16.5 5 Este 12 Este 0 -- -- 60
2020-03-18 13:00:00 14.4 5 Este 14 Este 0 -- -- 68
2020-03-18 12:00:00 11.1 6 Sudeste 13 Este 0 -- -- 82
2020-03-18 11:00:00 7.5 3 Sur 9 Sudeste 0 -- -- 98
2020-03-18 10:00:00 5.8 3 Sudoeste 9 Oeste 0 -- -- 98
2020-03-18 09:00:00 5.4 4 Sudoeste 7 Oeste 0 -- -- 98
2020-03-18 08:00:00 4.8 0 Calma 9 Oeste 0 -- -- 98
2020-03-18 07:00:00 4.8 3 Oeste 7 Sudoeste 0 -- -- 97
2020-03-18 06:00:00 4.8 2 Oeste 4 Sudoeste 0 -- -- 96
2020-03-18 05:00:00 4.9 3 Sudoeste 4 Sudoeste 0 -- -- 96
2020-03-18 04:00:00 5.1 3 Oeste 5 Noroeste 0 -- -- 94
2020-03-18 03:00:00 6.8 3 Sudoeste 5 Oeste 0 -- -- 93
2020-03-18 02:00:00 7.8 2 Oeste 6 Noroeste 0 -- -- 92
2020-03-18 01:00:00 8.4 0 Calma 5 Sudeste 0 -- -- 91
2020-03-18 00:00:00 8.7 3 Sudeste 13 Sudeste 0 -- -- 91
2020-03-17 23:00:00 8.7 0 Calma 9 Este 0 -- -- 91
2020-03-17 22:00:00 8.7 2 Nordeste 5 Este 0 -- -- 90
2020-03-17 21:00:00 8.9 2 Sudeste 7 Este 0 -- -- 90
2020-03-17 20:00:00 9 2 Norte 7 Nordeste 0 -- -- 88
2020-03-17 19:00:00 9.3 0 Calma 12 Este 0 -- -- 86
2020-03-17 18:00:00 9.4 8 Sudeste 15 Este 0 -- -- 86
2020-03-17 17:00:00 9.4 7 Sudeste 17 Este 0 -- -- 85
2020-03-17 16:00:00 9.4 9 Este 19 Este 0 -- -- 84
2020-03-17 15:00:00 9.1 9 Nordeste 18 Este 0 -- -- 84
2020-03-17 14:00:00 9.1 11 Nordeste 24 Nordeste 0 -- -- 83
2020-03-17 13:00:00 8.8 9 Nordeste 22 Nordeste 0 -- -- 82
2020-03-17 12:00:00 9 12 Este 26 Nordeste 0 -- -- 81
2020-03-17 11:00:00 8.5 6 Este 21 Norte 0 -- -- 83
2020-03-17 10:00:00 8.3 9 Norte 19 Nordeste 0 -- -- 82
2020-03-17 09:00:00 6.2 5 Noroeste 12 Norte 0 -- -- 90
2020-03-17 08:00:00 5.5 8 Noroeste 15 Norte 0 -- -- 90
2020-03-17 07:00:00 5.4 4 Sudoeste 17 Nordeste 0 -- -- 89
2020-03-17 06:00:00 5.3 9 Nordeste 32 Norte 0 -- -- 89
2020-03-17 05:00:00 5.1 10 Noroeste 28 Noroeste 0 -- -- 89
2020-03-17 04:00:00 5 9 Nordeste 22 Nordeste 0 -- -- 88
2020-03-17 03:00:00 4.8 8 Nordeste 25 Nordeste 0 -- -- 89
2020-03-17 02:00:00 4.7 11 Norte 31 Norte 0 -- -- 89
2020-03-17 01:00:00 4.9 11 Norte 32 Norte 0 -- -- 87
2020-03-17 00:00:00 5.2 12 Nordeste 45 Nordeste 0 -- -- 84
2020-03-16 23:00:00 5 16 Nordeste 38 Norte 0 -- -- 86
2020-03-16 22:00:00 5 15 Norte 51 Norte 0 -- -- 85
2020-03-16 21:00:00 5.1 15 Nordeste 44 Nordeste 0 -- -- 83
2020-03-16 20:00:00 4.7 12 Nordeste 32 Norte 0 -- -- 84
2020-03-16 19:00:00 4.8 14 Norte 39 Norte 0 -- -- 84
2020-03-16 18:00:00 5.4 19 Norte 45 Noroeste 0 -- -- 83
2020-03-16 17:00:00 5.6 17 Norte 39 Norte 0 -- -- 82
2020-03-16 16:00:00 5.7 18 Norte 47 Noroeste 0 -- -- 79
2020-03-16 15:00:00 5.3 18 Norte 41 Norte 0 -- -- 84
2020-03-16 14:00:00 5 15 Norte 44 Noroeste 0 -- -- 83
2020-03-16 13:00:00 4.8 16 Norte 33 Norte 0.4 -- -- 87
2020-03-16 12:00:00 4.4 14 Norte 43 Noroeste 0.2 -- -- 83
2020-03-16 11:00:00 3.7 15 Norte 42 Norte 0 -- -- 87
2020-03-16 10:00:00 2.9 12 Norte 36 Noroeste 0.2 -- -- 89
2020-03-16 09:00:00 2.6 13 Norte 41 Nordeste 0 -- -- 89
2020-03-16 08:00:00 2.4 14 Noroeste 35 Norte 0 -- -- 89
2020-03-16 07:00:00 2.1 12 Norte 32 Noroeste 0.2 -- -- 89
2020-03-16 06:00:00 1.7 10 Norte 34 Noroeste 0.6 -- -- 90
2020-03-16 05:00:00 1.9 20 Noroeste 43 Noroeste 0.2 -- -- 88
2020-03-16 04:00:00 2.1 15 Noroeste 33 Noroeste 0 -- -- 86
2020-03-16 03:00:00 2.6 5 Norte 23 Noroeste 0 -- -- 84
2020-03-16 02:00:00 2.8 4 Norte 28 Norte 0 -- -- 84
2020-03-16 01:00:00 3.2 12 Nordeste 27 Este 0 -- -- 83
2020-03-16 00:00:00 3.7 8 Norte 33 Este 0 -- -- 79
2020-03-15 23:00:00 3.7 10 Norte 35 Noroeste 0 -- -- 81
2020-03-15 22:00:00 4.2 9 Norte 35 Noroeste 0 -- -- 79
2020-03-15 21:00:00 4.7 13 Norte 39 Noroeste 0 -- -- 80
2020-03-15 20:00:00 5.9 16 Norte 34 Noroeste 0 -- -- 81
2020-03-15 19:00:00 8 15 Norte 30 Norte 0 -- -- 79
2020-03-15 18:00:00 9 12 Noroeste 26 Norte 0 -- -- 71
2020-03-15 17:00:00 10.5 17 Norte 36 Noroeste 0 -- -- 70
2020-03-15 16:00:00 18.3 16 Sur 38 Sudoeste 0 -- -- 36
2020-03-15 15:00:00 18.2 21 Sudoeste 39 Oeste 0 -- -- 32
2020-03-15 14:00:00 18.3 12 Sudoeste 28 Sudoeste 0 -- -- 32
2020-03-15 13:00:00 17.1 15 Sudoeste 28 Oeste 0 -- -- 35
2020-03-15 12:00:00 16.4 8 Sur 20 Sudoeste 0 -- -- 38
2020-03-15 11:00:00 13.9 6 Sudoeste 13 Sur 0 -- -- 50
2020-03-15 10:00:00 7.3 3 Este 6 Sudeste 0 -- -- 77
2020-03-15 09:00:00 1.7 2 Este 5 Este 0 -- -- 95
2020-03-15 08:00:00 -2.7 2 Noroeste 8 Noroeste 0 -- -- 97
2020-03-15 07:00:00 -3.2 4 Oeste 6 Oeste 0 -- -- 95
2020-03-15 06:00:00 -2.6 0 Calma 6 Oeste 0 -- -- 95
2020-03-15 05:00:00 -2.4 4 Oeste 6 Oeste 0 -- -- 95
2020-03-15 04:00:00 -1.7 4 Noroeste 6 Noroeste 0 -- -- 95
2020-03-15 03:00:00 -1.2 4 Oeste 7 Oeste 0 -- -- 94
2020-03-15 02:00:00 -0.6 5 Oeste 9 Oeste 0 -- -- 94
2020-03-15 01:00:00 0.1 6 Oeste 8 Oeste 0 -- -- 92
2020-03-15 00:00:00 1.2 5 Oeste 9 Oeste 0 -- -- 89
2020-03-14 23:00:00 2.6 3 Oeste 6 Oeste 0 -- -- 84
2020-03-14 22:00:00 4.6 2 Oeste 4 Noroeste 0 -- -- 79
2020-03-14 21:00:00 7.1 0 Calma 5 Este 0 -- -- 70
2020-03-14 20:00:00 10.3 0 Calma 6 Noroeste 0 -- -- 58
2020-03-14 19:00:00 15.3 2 Noroeste 13 Este 0 -- -- 46
2020-03-14 18:00:00 17 7 Sudeste 13 Este 0 -- -- 33
2020-03-14 17:00:00 17.6 5 Sudeste 14 Sudeste 0 -- -- 34
2020-03-14 16:00:00 17 5 Este 18 Sudeste 0 -- -- 38
2020-03-14 15:00:00 15.9 6 Sudeste 18 Sudeste 0 -- -- 41
2020-03-14 14:00:00 14.5 9 Este 16 Sudeste 0 -- -- 48
2020-03-14 13:00:00 12.5 8 Sudeste 17 Sudeste 0 -- -- 60
2020-03-14 12:00:00 10.4 8 Este 13 Este 0 -- -- 63
2020-03-14 11:00:00 7.2 4 Oeste 8 Sudoeste 0 -- -- 78
2020-03-14 10:00:00 3.5 3 Sudoeste 5 Sudoeste 0 -- -- 95
2020-03-14 09:00:00 -0.6 0 Calma 5 Sudoeste 0 -- -- 97
2020-03-14 08:00:00 -2.8 2 Oeste 6 Oeste 0 -- -- 97
2020-03-14 07:00:00 -2.6 3 Oeste 8 Oeste 0 -- -- 97
2020-03-14 06:00:00 -2.4 6 Oeste 8 Oeste 0 -- -- 97
2020-03-14 05:00:00 -2.2 0 Calma 6 Oeste 0 -- -- 97
2020-03-14 04:00:00 -2.5 4 Oeste 6 Oeste 0 -- -- 96
2020-03-14 03:00:00 -2.6 3 Oeste 6 Oeste 0 -- -- 96
2020-03-14 02:00:00 -2.1 2 Oeste 7 Oeste 0 -- -- 95
2020-03-14 01:00:00 -1.6 7 Oeste 9 Oeste 0 -- -- 94
2020-03-14 00:00:00 -0.3 0 Calma 6 Oeste 0 -- -- 93
2020-03-13 23:00:00 0.9 3 Noroeste 6 Noroeste 0 -- -- 90
2020-03-13 22:00:00 2.5 4 Nordeste 12 Norte 0 -- -- 88
2020-03-13 21:00:00 4.7 9 Norte 16 Norte 0 -- -- 84
2020-03-13 20:00:00 5.8 8 Norte 15 Norte 0 -- -- 79
2020-03-13 19:00:00 7.9 10 Nordeste 19 Nordeste 0 -- -- 71
2020-03-13 18:00:00 8.6 10 Norte 19 Nordeste 0 -- -- 70
2020-03-13 17:00:00 8.4 9 Norte 23 Nordeste 0 -- -- 76
2020-03-13 16:00:00 8.2 9 Norte 25 Norte 0 -- -- 77
2020-03-13 15:00:00 8.9 12 Norte 23 Norte 0 -- -- 73
2020-03-13 14:00:00 9.2 10 Norte 22 Norte 0 -- -- 71
2020-03-13 13:00:00 8.6 10 Nordeste 21 Nordeste 0 -- -- 74
2020-03-13 12:00:00 8 12 Norte 30 Nordeste 0 -- -- 80
2020-03-13 11:00:00 8.2 16 Nordeste 27 Este 0 -- -- 78
2020-03-13 10:00:00 7.1 13 Nordeste 22 Nordeste 0 -- -- 83
2020-03-13 09:00:00 6.5 6 Norte 13 Norte 0 -- -- 89
2020-03-13 08:00:00 5.8 4 Nordeste 18 Norte 0 -- -- 93
2020-03-13 07:00:00 6 9 Norte 15 Norte 0 -- -- 92
2020-03-13 06:00:00 6.3 7 Norte 19 Noroeste 0 -- -- 90
2020-03-13 05:00:00 6.6 11 Norte 21 Norte 0 -- -- 89
2020-03-13 04:00:00 6.6 5 Norte 14 Norte 0 -- -- 91
2020-03-13 03:00:00 6.7 7 Norte 16 Norte 0 -- -- 90
2020-03-13 02:00:00 7.2 8 Nordeste 19 Nordeste 0 -- -- 88
2020-03-13 01:00:00 7.2 6 Nordeste 16 Norte 0 -- -- 87
2020-03-13 00:00:00 7.4 5 Nordeste 24 Nordeste 0 -- -- 87
2020-03-12 23:00:00 7.6 6 Norte 31 Noroeste 0 -- -- 85
2020-03-12 22:00:00 7.8 11 Norte 33 Norte 0 -- -- 84
2020-03-12 21:00:00 7.8 10 Norte 29 Norte 0 -- -- 84
2020-03-12 20:00:00 7.9 15 Norte 31 Norte 0 -- -- 84
2020-03-12 19:00:00 8.5 9 Norte 25 Norte 0 -- -- 83
2020-03-12 18:00:00 10 12 Nordeste 30 Nordeste 0 -- -- 84
2020-03-12 17:00:00 10.6 13 Nordeste 26 Nordeste 0 -- -- 82
2020-03-12 16:00:00 11.6 10 Norte 27 Nordeste 0 -- -- 77
2020-03-12 15:00:00 11.6 11 Nordeste 22 Nordeste 0 -- -- 78
2020-03-12 14:00:00 12.3 11 Norte 19 Nordeste 0 -- -- 75
2020-03-12 13:00:00 12.2 10 Norte 21 Noroeste 0 -- -- 76
2020-03-12 12:00:00 12.3 7 Sudoeste 21 Sudeste 0 -- -- 74
2020-03-12 11:00:00 10.8 4 Sudeste 12 Este 0 -- -- 81
2020-03-12 10:00:00 8.9 5 Este 10 Este 0 -- -- 89
2020-03-12 09:00:00 8 5 Este 8 Este 0 -- -- 95
2020-03-12 08:00:00 5.3 4 Este 8 Este 0 -- -- 96
2020-03-12 07:00:00 5 4 Este 8 Nordeste 0 -- -- 96
2020-03-12 06:00:00 3.8 6 Este 8 Este 0 -- -- 95
2020-03-12 05:00:00 4 4 Este 6 Nordeste 0 -- -- 94
2020-03-12 04:00:00 3.8 0 Calma 8 Oeste 0 -- -- 93
2020-03-12 03:00:00 4.6 3 Oeste 5 Oeste 0 -- -- 90
2020-03-12 02:00:00 5.4 3 Oeste 5 Sudoeste 0 -- -- 88
2020-03-12 01:00:00 6.5 3 Oeste 8 Oeste 0 -- -- 86
2020-03-12 00:00:00 7.8 4 Oeste 8 Oeste 0 -- -- 82
2020-03-11 23:00:00 9.6 2 Noroeste 11 Noroeste 0 -- -- 75
2020-03-11 22:00:00 10.4 7 Oeste 10 Noroeste 0 -- -- 72
2020-03-11 21:00:00 12.3 0 Calma 7 Sur 0 -- -- 64
2020-03-11 20:00:00 15.7 0 Calma 9 Sudoeste 0 -- -- 53
2020-03-11 19:00:00 19.1 6 Sudoeste 22 Sudoeste 0 -- -- 45
2020-03-11 18:00:00 20.7 11 Sudoeste 25 Sudoeste 0 -- -- 39
2020-03-11 17:00:00 21.9 10 Sudoeste 26 Sudoeste 0 -- -- 39
2020-03-11 16:00:00 21.8 15 Sudoeste 32 Sudoeste 0 -- -- 36
2020-03-11 15:00:00 21.1 16 Sudoeste 34 Oeste 0 -- -- 39
2020-03-11 14:00:00 20.5 17 Sudoeste 31 Sudoeste 0 -- -- 38
2020-03-11 13:00:00 18.8 4 Sudoeste 8 Sur 0 -- -- 45
2020-03-11 12:00:00 13.8 4 Sudeste 10 Este 0 -- -- 65
2020-03-11 11:00:00 8.2 8 Este 12 Este 0 -- -- 86
2020-03-11 10:00:00 3.6 6 Este 9 Este 0 -- -- 99
2020-03-11 09:00:00 0.4 3 Sudeste 5 Sudeste 0 -- -- 98
2020-03-11 08:00:00 -0.7 4 Noroeste 5 Oeste 0 -- -- 97
2020-03-11 07:00:00 -0.4 3 Oeste 4 Oeste 0 -- -- 97
2020-03-11 06:00:00 -0.6 3 Oeste 6 Oeste 0 -- -- 96
2020-03-11 05:00:00 0.1 0 Calma 6 Sudoeste 0 -- -- 96
2020-03-11 04:00:00 0.7 3 Oeste 8 Oeste 0 -- -- 96
2020-03-11 03:00:00 1.1 4 Sudoeste 8 Noroeste 0 -- -- 94
2020-03-11 02:00:00 2.2 0 Calma 6 Oeste 0 -- -- 94
2020-03-11 01:00:00 3.3 5 Oeste 8 Noroeste 0 -- -- 92
2020-03-11 00:00:00 4.5 5 Noroeste 9 Noroeste 0 -- -- 91
2020-03-10 23:00:00 6.1 4 Este 5 Este 0 -- -- 88
2020-03-10 22:00:00 7.5 5 Noroeste 12 Noroeste 0 -- -- 83
2020-03-10 21:00:00 10.4 2 Este 9 Este 0 -- -- 78
2020-03-10 20:00:00 13.3 5 Este 14 Noroeste 0 -- -- 71
2020-03-10 19:00:00 17.9 6 Oeste 20 Sudoeste 0 -- -- 51
2020-03-10 18:00:00 19.6 6 Sudoeste 28 Sudoeste 0 -- -- 47
2020-03-10 17:00:00 19.5 17 Sudoeste 30 Sudoeste 0 -- -- 45
2020-03-10 16:00:00 20.8 6 Oeste 20 Oeste 0 -- -- 38
2020-03-10 15:00:00 18.7 7 Oeste 25 Oeste 0 -- -- 47
2020-03-10 14:00:00 17.5 15 Oeste 24 Oeste 0 -- -- 48
2020-03-10 13:00:00 15.8 15 Oeste 26 Oeste 0 -- -- 51
2020-03-10 12:00:00 15.1 13 Oeste 21 Oeste 0 -- -- 52
2020-03-10 11:00:00 11.1 6 Sudoeste 9 Oeste 0 -- -- 61
2020-03-10 10:00:00 5.9 0 Calma 7 Noroeste 0 -- -- 98
2020-03-10 09:00:00 2 4 Noroeste 10 Oeste 0 -- -- 98
2020-03-10 08:00:00 0.4 2 Nordeste 8 Oeste 0 -- -- 97
2020-03-10 07:00:00 0.5 6 Oeste 10 Oeste 0 -- -- 97
2020-03-10 06:00:00 0.7 2 Oeste 5 Oeste 0 -- -- 97
2020-03-10 05:00:00 0.6 5 Oeste 8 Oeste 0 -- -- 96
2020-03-10 04:00:00 0.8 2 Noroeste 5 Oeste 0 -- -- 96
2020-03-10 03:00:00 1 3 Noroeste 9 Oeste 0 -- -- 95
2020-03-10 02:00:00 1.5 3 Noroeste 11 Oeste 0 -- -- 94
2020-03-10 01:00:00 1.8 6 Oeste 11 Oeste 0 -- -- 94
2020-03-10 00:00:00 2 4 Oeste 10 Oeste 0 -- -- 93
2020-03-09 23:00:00 2.5 6 Oeste 10 Noroeste 0 -- -- 92
2020-03-09 22:00:00 3.7 0 Calma 5 Sudoeste 0 -- -- 88
2020-03-09 21:00:00 5.5 5 Este 8 Este 0 -- -- 84
2020-03-09 20:00:00 6.4 3 Nordeste 8 Este 0 -- -- 80
2020-03-09 19:00:00 9.6 0 Calma 16 Noroeste 0 -- -- 68
2020-03-09 18:00:00 10.6 11 Noroeste 19 Noroeste 0 -- -- 64
2020-03-09 17:00:00 11 7 Norte 19 Norte 0 -- -- 57
2020-03-09 16:00:00 11 8 Norte 15 Norte 0 -- -- 56
2020-03-09 15:00:00 11 8 Norte 21 Noroeste 0 -- -- 56
2020-03-09 14:00:00 10.9 8 Norte 21 Nordeste 0 -- -- 53
2020-03-09 13:00:00 10.5 8 Nordeste 18 Norte 0 -- -- 55
2020-03-09 12:00:00 9.9 8 Norte 22 Noroeste 0 -- -- 61
2020-03-09 11:00:00 9.5 9 Norte 15 Noroeste 0 -- -- 62
2020-03-09 10:00:00 8.1 4 Sudoeste 9 Sudoeste 0 -- -- 72
2020-03-09 09:00:00 5 4 Oeste 9 Sudoeste 0 -- -- 88
2020-03-09 08:00:00 4.1 3 Noroeste 5 Noroeste 0 -- -- 89
2020-03-09 07:00:00 4.9 2 Oeste 8 Sudoeste 0 -- -- 88
2020-03-09 06:00:00 5.1 3 Oeste 6 Sur 0 -- -- 86
2020-03-09 05:00:00 5.5 2 Sudoeste 11 Norte 0 -- -- 82
2020-03-09 04:00:00 5.9 3 Noroeste 18 Norte 0 -- -- 83
2020-03-09 03:00:00 6.3 4 Noroeste 9 Noroeste 0 -- -- 86
2020-03-09 02:00:00 6.3 3 Este 13 Nordeste 0 -- -- 85
2020-03-09 01:00:00 6.9 7 Noroeste 14 Norte 0 -- -- 82
2020-03-09 00:00:00 7.1 3 Norte 14 Norte 0 -- -- 83
2020-03-08 23:00:00 7.2 3 Sudeste 8 Este 0 -- -- 87
2020-03-08 22:00:00 7.5 7 Este 17 Nordeste 0 -- -- 86
2020-03-08 21:00:00 8 9 Norte 20 Norte 0 -- -- 85
2020-03-08 20:00:00 8.5 4 Sudeste 26 Noroeste 0 -- -- 87
2020-03-08 19:00:00 10 14 Noroeste 34 Oeste 0 -- -- 81
2020-03-08 18:00:00 14.7 15 Sudoeste 29 Sudoeste 0 -- -- 59
2020-03-08 17:00:00 14.3 14 Sudoeste 36 Sudoeste 0 -- -- 61
2020-03-08 16:00:00 15 14 Sudoeste 27 Sudoeste 0 -- -- 60
2020-03-08 15:00:00 13.9 13 Sudoeste 32 Sudoeste 0 -- -- 58
2020-03-08 14:00:00 13.2 11 Sudoeste 24 Sudoeste 0 -- -- 57
2020-03-08 13:00:00 11.7 6 Sudoeste 17 Oeste 0 -- -- 64
2020-03-08 12:00:00 10.4 3 Sur 12 Sudoeste 0 -- -- 72
2020-03-08 11:00:00 7.1 3 Este 7 Este 0 -- -- 96
2020-03-08 10:00:00 4.2 2 Nordeste 9 Noroeste 0 -- -- 98
2020-03-08 09:00:00 2.2 6 Noroeste 13 Este 0 -- -- 99
2020-03-08 08:00:00 0.7 3 Noroeste 6 Oeste 0 -- -- 98
2020-03-08 07:00:00 0.2 0 Calma 8 Noroeste 0 -- -- 98
2020-03-08 06:00:00 -0.6 0 Calma 6 Oeste 0 -- -- 97
2020-03-08 05:00:00 -0.4 3 Noroeste 7 Sudeste 0 -- -- 98
2020-03-08 04:00:00 -0.5 0 Calma 6 Sudeste 0 -- -- 97
2020-03-08 03:00:00 -0.3 0 Calma 9 Noroeste 0 -- -- 96
2020-03-08 02:00:00 -0.4 5 Este 8 Oeste 0 -- -- 96
2020-03-08 01:00:00 -0.2 5 Oeste 12 Noroeste 0 -- -- 95
2020-03-08 00:00:00 0.7 3 Noroeste 7 Oeste 0 -- -- 94
2020-03-07 23:00:00 1.4 4 Oeste 9 Oeste 0 -- -- 93
2020-03-07 22:00:00 2.9 0 Calma 12 Noroeste 0 -- -- 91
2020-03-07 21:00:00 5.2 4 Noroeste 7 Noroeste 0 -- -- 86
2020-03-07 20:00:00 6.6 0 Calma 9 Noroeste 0 -- -- 82
2020-03-07 19:00:00 10 5 Noroeste 10 Noroeste 0 -- -- 72
2020-03-07 18:00:00 11.7 6 Este 18 Este 0 -- -- 63
2020-03-07 17:00:00 11.2 11 Este 21 Sudeste 0 -- -- 64
2020-03-07 16:00:00 12.5 5 Noroeste 22 Este 0 -- -- 56
2020-03-07 15:00:00 11.9 5 Oeste 17 Norte 0 -- -- 57
2020-03-07 14:00:00 11 8 Norte 17 Norte 0 -- -- 63
2020-03-07 13:00:00 10 6 Noroeste 15 Noroeste 0 -- -- 67
2020-03-07 12:00:00 9.1 8 Norte 32 Noroeste 0 -- -- 71
2020-03-07 11:00:00 7.4 10 Oeste 16 Oeste 0.2 -- -- 90
2020-03-07 10:00:00 4.7 4 Oeste 8 Noroeste 0.2 -- -- 97
2020-03-07 09:00:00 3.5 2 Noroeste 8 Oeste 0.6 -- -- 96
2020-03-07 08:00:00 3.1 3 Oeste 6 Noroeste 0.2 -- -- 96
2020-03-07 07:00:00 3 0 Calma 6 Nordeste 0.6 -- -- 96
2020-03-07 06:00:00 2.8 0 Calma 9 Oeste 1.4 -- -- 95
2020-03-07 05:00:00 2.9 0 Calma 5 Este 1.4 -- -- 94
2020-03-07 04:00:00 3.4 3 Este 9 Este 1.4 -- -- 92
2020-03-07 03:00:00 3.9 5 Este 8 Este 0 -- -- 82
2020-03-07 02:00:00 4.6 5 Nordeste 27 Oeste 0 -- -- 77
2020-03-07 01:00:00 4.5 18 Oeste 37 Oeste 0 -- -- 70
2020-03-07 00:00:00 4.7 24 Oeste 36 Oeste 0 -- -- 58
2020-03-06 23:00:00 4.1 19 Oeste 37 Oeste 0 -- -- 73
2020-03-06 22:00:00 3.9 17 Noroeste 29 Oeste 0 -- -- 77
2020-03-06 21:00:00 3.7 13 Oeste 44 Oeste 0 -- -- 79
2020-03-06 20:00:00 3.9 18 Oeste 31 Oeste 0 -- -- 76
2020-03-06 19:00:00 3.9 20 Oeste 36 Oeste 0.2 -- -- 79
2020-03-06 18:00:00 3.7 13 Oeste 44 Sudoeste 0 -- -- 84
2020-03-06 17:00:00 4.3 20 Oeste 53 Noroeste 0 -- -- 78
2020-03-06 16:00:00 5.9 24 Oeste 56 Oeste 0 -- -- 71
2020-03-06 15:00:00 5.7 24 Noroeste 49 Noroeste 0 -- -- 72
2020-03-06 14:00:00 5.4 20 Noroeste 40 Noroeste 0 -- -- 75
2020-03-06 13:00:00 5.1 14 Noroeste 42 Noroeste 0 -- -- 76
2020-03-06 12:00:00 4 11 Noroeste 32 Noroeste 0.2 -- -- 86
2020-03-06 11:00:00 2.3 7 Noroeste 22 Noroeste 1.2 -- -- 95
2020-03-06 10:00:00 1.3 3 Sudoeste 15 Noroeste 1.8 -- -- 94
2020-03-06 09:00:00 1.6 8 Noroeste 17 Noroeste 0.8 -- -- 91
2020-03-06 08:00:00 2.6 6 Noroeste 10 Oeste 0 -- -- 89
2020-03-06 07:00:00 2.3 4 Sudoeste 23 Oeste 0 -- -- 87
2020-03-06 06:00:00 3.5 15 Oeste 28 Oeste 0 -- -- 83
2020-03-06 05:00:00 4.4 15 Oeste 30 Oeste 0 -- -- 81
2020-03-06 04:00:00 4.1 12 Oeste 33 Oeste 0 -- -- 82
2020-03-06 03:00:00 4 19 Oeste 34 Oeste 0 -- -- 81
2020-03-06 02:00:00 4.1 16 Oeste 31 Oeste 0 -- -- 82
2020-03-06 01:00:00 0 3 Oeste 9 Oeste 0 -- -- 94
2020-03-06 00:00:00 0.3 7 Oeste 12 Noroeste 0 -- -- 93
2020-03-05 23:00:00 0.9 2 Noroeste 8 Noroeste 0 -- -- 92
2020-03-05 22:00:00 1.9 3 Oeste 6 Este 0 -- -- 88
2020-03-05 21:00:00 3.5 0 Calma 6 Norte 0 -- -- 83
2020-03-05 20:00:00 5 3 Nordeste 17 Norte 0 -- -- 77
2020-03-05 19:00:00 7.3 8 Norte 26 Noroeste 0 -- -- 70
2020-03-05 18:00:00 8.5 13 Norte 34 Noroeste 0 -- -- 68
2020-03-05 17:00:00 9.6 14 Noroeste 39 Noroeste 0.2 -- -- 64
2020-03-05 16:00:00 9.6 17 Norte 31 Norte 0.2 -- -- 68
2020-03-05 15:00:00 10.1 17 Norte 44 Oeste 0 -- -- 69
2020-03-05 14:00:00 13.8 28 Sudoeste 54 Oeste 0 -- -- 52
2020-03-05 13:00:00 12.9 35 Sudoeste 55 Sudoeste 0 -- -- 51
2020-03-05 12:00:00 11.8 36 Sudoeste 68 Sudoeste 0 -- -- 59
2020-03-05 11:00:00 10.6 38 Oeste 69 Sudoeste 0 -- -- 69
2020-03-05 10:00:00 10.2 22 Oeste 53 Sudoeste 0.4 -- -- 72
2020-03-05 09:00:00 10.4 22 Sudoeste 53 Sudoeste 0.2 -- -- 87
2020-03-05 08:00:00 10.6 27 Sudoeste 55 Sudoeste 0 -- -- 84
2020-03-05 07:00:00 11 24 Sudoeste 58 Sudoeste 0 -- -- 82
2020-03-05 06:00:00 11.3 31 Sudoeste 60 Sudoeste 0 -- -- 81
2020-03-05 05:00:00 11.6 30 Sudoeste 70 Sudoeste 0 -- -- 79
2020-03-05 04:00:00 11.7 27 Sudoeste 57 Sudoeste 0 -- -- 78
2020-03-05 03:00:00 11.7 23 Sudoeste 44 Sudoeste 0 -- -- 83
2020-03-05 02:00:00 11.2 23 Sudoeste 45 Sudoeste 0 -- -- 85
2020-03-05 01:00:00 11.6 19 Sudoeste 42 Sudoeste 0 -- -- 81
2020-03-05 00:00:00 11.9 14 Sudoeste 44 Sudoeste 0 -- -- 79